sensor_id;sensor_type;location;lat;lon;timestamp;pressure;altitude;pressure_sealevel;temperature
19644;BMP180;9970;-36.854;174.870;2023-09-07T00:02:22;102465.00;;;16.30
19644;BMP180;9970;-36.854;174.870;2023-09-07T00:04:56;102462.00;;;16.30
19644;BMP180;9970;-36.854;174.870;2023-09-07T00:07:29;102455.00;;;16.30
19644;BMP180;9970;-36.854;174.870;2023-09-07T00:10:03;102456.00;;;16.30
19644;BMP180;9970;-36.854;174.870;2023-09-07T00:12:37;102451.00;;;16.40
19644;BMP180;9970;-36.854;174.870;2023-09-07T00:15:10;102456.00;;;16.40
19644;BMP180;9970;-36.854;174.870;2023-09-07T00:17:44;102455.00;;;16.40
19644;BMP180;9970;-36.854;174.870;2023-09-07T00:20:17;102457.00;;;16.40
19644;BMP180;9970;-36.854;174.870;2023-09-07T00:22:51;102455.00;;;16.40
19644;BMP180;9970;-36.854;174.870;2023-09-07T00:25:25;102452.00;;;16.40
19644;BMP180;9970;-36.854;174.870;2023-09-07T00:27:58;102452.00;;;16.40
19644;BMP180;9970;-36.854;174.870;2023-09-07T00:30:32;102450.00;;;16.40
19644;BMP180;9970;-36.854;174.870;2023-09-07T00:33:06;102439.00;;;16.40
19644;BMP180;9970;-36.854;174.870;2023-09-07T00:35:42;102448.00;;;16.40
19644;BMP180;9970;-36.854;174.870;2023-09-07T00:38:14;102436.00;;;16.40
19644;BMP180;9970;-36.854;174.870;2023-09-07T00:40:48;102435.00;;;16.40
19644;BMP180;9970;-36.854;174.870;2023-09-07T00:43:21;102441.00;;;16.40
19644;BMP180;9970;-36.854;174.870;2023-09-07T00:46:18;102446.00;;;16.40
19644;BMP180;9970;-36.854;174.870;2023-09-07T00:48:53;102441.00;;;16.40
19644;BMP180;9970;-36.854;174.870;2023-09-07T00:51:27;102434.00;;;16.40
19644;BMP180;9970;-36.854;174.870;2023-09-07T00:54:00;102428.00;;;16.50
19644;BMP180;9970;-36.854;174.870;2023-09-07T00:56:34;102439.00;;;16.40
19644;BMP180;9970;-36.854;174.870;2023-09-07T00:59:09;102430.00;;;16.40
19644;BMP180;9970;-36.854;174.870;2023-09-07T01:01:58;102414.00;;;16.50
19644;BMP180;9970;-36.854;174.870;2023-09-07T01:05:07;102402.00;;;16.40
19644;BMP180;9970;-36.854;174.870;2023-09-07T01:07:53;102399.00;;;16.40
19644;BMP180;9970;-36.854;174.870;2023-09-07T01:10:28;102400.00;;;16.40
19644;BMP180;9970;-36.854;174.870;2023-09-07T01:13:01;102394.00;;;16.40
19644;BMP180;9970;-36.854;174.870;2023-09-07T01:15:35;102395.00;;;16.40
19644;BMP180;9970;-36.854;174.870;2023-09-07T01:18:10;102388.00;;;16.40
19644;BMP180;9970;-36.854;174.870;2023-09-07T01:20:46;102389.00;;;16.40
19644;BMP180;9970;-36.854;174.870;2023-09-07T01:23:20;102373.00;;;16.40
19644;BMP180;9970;-36.854;174.870;2023-09-07T01:25:54;102378.00;;;16.40
19644;BMP180;9970;-36.854;174.870;2023-09-07T01:28:27;102384.00;;;16.40
19644;BMP180;9970;-36.854;174.870;2023-09-07T01:31:01;102390.00;;;16.40
19644;BMP180;9970;-36.854;174.870;2023-09-07T01:33:34;102386.00;;;16.40
19644;BMP180;9970;-36.854;174.870;2023-09-07T01:36:07;102391.00;;;16.50
19644;BMP180;9970;-36.854;174.870;2023-09-07T01:38:41;102385.00;;;16.50
19644;BMP180;9970;-36.854;174.870;2023-09-07T01:41:18;102382.00;;;16.50
19644;BMP180;9970;-36.854;174.870;2023-09-07T01:43:51;102377.00;;;16.50
19644;BMP180;9970;-36.854;174.870;2023-09-07T01:46:25;102372.00;;;16.60
19644;BMP180;9970;-36.854;174.870;2023-09-07T01:49:01;102376.00;;;16.60
19644;BMP180;9970;-36.854;174.870;2023-09-07T01:51:35;102368.00;;;16.60
19644;BMP180;9970;-36.854;174.870;2023-09-07T01:54:08;102361.00;;;16.60
19644;BMP180;9970;-36.854;174.870;2023-09-07T01:56:41;102365.00;;;16.60
19644;BMP180;9970;-36.854;174.870;2023-09-07T01:59:14;102358.00;;;16.60
19644;BMP180;9970;-36.854;174.870;2023-09-07T02:01:47;102356.00;;;16.60
19644;BMP180;9970;-36.854;174.870;2023-09-07T02:04:20;102363.00;;;16.60
19644;BMP180;9970;-36.854;174.870;2023-09-07T02:06:53;102363.00;;;16.70
19644;BMP180;9970;-36.854;174.870;2023-09-07T02:09:26;102356.00;;;16.70
19644;BMP180;9970;-36.854;174.870;2023-09-07T02:12:00;102358.00;;;16.70
19644;BMP180;9970;-36.854;174.870;2023-09-07T02:14:34;102355.00;;;16.60
19644;BMP180;9970;-36.854;174.870;2023-09-07T02:17:07;102351.00;;;16.70
19644;BMP180;9970;-36.854;174.870;2023-09-07T02:19:48;102349.00;;;16.70
19644;BMP180;9970;-36.854;174.870;2023-09-07T02:22:21;102351.00;;;16.70
19644;BMP180;9970;-36.854;174.870;2023-09-07T02:24:54;102361.00;;;16.70
19644;BMP180;9970;-36.854;174.870;2023-09-07T02:27:27;102354.00;;;16.70
19644;BMP180;9970;-36.854;174.870;2023-09-07T02:30:03;102355.00;;;16.70
19644;BMP180;9970;-36.854;174.870;2023-09-07T02:32:36;102360.00;;;16.70
19644;BMP180;9970;-36.854;174.870;2023-09-07T02:35:09;102358.00;;;16.70
19644;BMP180;9970;-36.854;174.870;2023-09-07T02:37:43;102360.00;;;16.70
19644;BMP180;9970;-36.854;174.870;2023-09-07T02:40:19;102364.00;;;16.70
19644;BMP180;9970;-36.854;174.870;2023-09-07T02:42:52;102357.00;;;16.70
19644;BMP180;9970;-36.854;174.870;2023-09-07T02:45:25;102354.00;;;16.70
19644;BMP180;9970;-36.854;174.870;2023-09-07T02:47:58;102348.00;;;16.70
19644;BMP180;9970;-36.854;174.870;2023-09-07T02:50:32;102354.00;;;16.70
19644;BMP180;9970;-36.854;174.870;2023-09-07T02:53:06;102368.00;;;16.70
19644;BMP180;9970;-36.854;174.870;2023-09-07T02:55:40;102361.00;;;16.70
19644;BMP180;9970;-36.854;174.870;2023-09-07T02:58:20;102365.00;;;16.70
19644;BMP180;9970;-36.854;174.870;2023-09-07T03:00:53;102367.00;;;16.60
19644;BMP180;9970;-36.854;174.870;2023-09-07T03:03:26;102371.00;;;16.60
19644;BMP180;9970;-36.854;174.870;2023-09-07T03:06:12;102371.00;;;16.60
19644;BMP180;9970;-36.854;174.870;2023-09-07T03:08:46;102365.00;;;16.60
19644;BMP180;9970;-36.854;174.870;2023-09-07T03:11:19;102369.00;;;16.60
19644;BMP180;9970;-36.854;174.870;2023-09-07T03:13:52;102371.00;;;16.60
19644;BMP180;9970;-36.854;174.870;2023-09-07T03:16:25;102371.00;;;16.60
19644;BMP180;9970;-36.854;174.870;2023-09-07T03:18:59;102366.00;;;16.60
19644;BMP180;9970;-36.854;174.870;2023-09-07T03:21:32;102365.00;;;16.60
19644;BMP180;9970;-36.854;174.870;2023-09-07T03:24:05;102357.00;;;16.50
19644;BMP180;9970;-36.854;174.870;2023-09-07T03:26:38;102360.00;;;16.50
19644;BMP180;9970;-36.854;174.870;2023-09-07T03:29:11;102360.00;;;16.60
19644;BMP180;9970;-36.854;174.870;2023-09-07T03:31:44;102355.00;;;16.60
19644;BMP180;9970;-36.854;174.870;2023-09-07T03:34:17;102354.00;;;16.60
19644;BMP180;9970;-36.854;174.870;2023-09-07T03:36:51;102356.00;;;16.60
19644;BMP180;9970;-36.854;174.870;2023-09-07T03:39:23;102356.00;;;16.60
19644;BMP180;9970;-36.854;174.870;2023-09-07T03:41:57;102362.00;;;16.60
19644;BMP180;9970;-36.854;174.870;2023-09-07T03:44:30;102358.00;;;16.60
19644;BMP180;9970;-36.854;174.870;2023-09-07T03:47:03;102363.00;;;16.60
19644;BMP180;9970;-36.854;174.870;2023-09-07T03:49:40;102359.00;;;16.60
19644;BMP180;9970;-36.854;174.870;2023-09-07T03:52:14;102357.00;;;16.60
19644;BMP180;9970;-36.854;174.870;2023-09-07T03:54:46;102367.00;;;16.60
19644;BMP180;9970;-36.854;174.870;2023-09-07T03:57:19;102357.00;;;16.60
19644;BMP180;9970;-36.854;174.870;2023-09-07T03:59:52;102359.00;;;16.60
19644;BMP180;9970;-36.854;174.870;2023-09-07T04:02:27;102358.00;;;16.60
19644;BMP180;9970;-36.854;174.870;2023-09-07T04:05:00;102359.00;;;16.60
19644;BMP180;9970;-36.854;174.870;2023-09-07T04:07:34;102362.00;;;16.60
19644;BMP180;9970;-36.854;174.870;2023-09-07T04:10:08;102367.00;;;16.60
19644;BMP180;9970;-36.854;174.870;2023-09-07T04:12:41;102368.00;;;16.60
19644;BMP180;9970;-36.854;174.870;2023-09-07T04:15:14;102382.00;;;16.60
19644;BMP180;9970;-36.854;174.870;2023-09-07T04:17:49;102386.00;;;16.60
19644;BMP180;9970;-36.854;174.870;2023-09-07T04:20:22;102383.00;;;16.60
19644;BMP180;9970;-36.854;174.870;2023-09-07T04:22:55;102386.00;;;16.60
19644;BMP180;9970;-36.854;174.870;2023-09-07T04:28:30;102397.00;;;16.60
19644;BMP180;9970;-36.854;174.870;2023-09-07T04:31:03;102394.00;;;16.60
19644;BMP180;9970;-36.854;174.870;2023-09-07T04:33:36;102400.00;;;16.60
19644;BMP180;9970;-36.854;174.870;2023-09-07T04:36:10;102399.00;;;16.60
19644;BMP180;9970;-36.854;174.870;2023-09-07T04:38:44;102401.00;;;16.50
19644;BMP180;9970;-36.854;174.870;2023-09-07T04:41:17;102402.00;;;16.50
19644;BMP180;9970;-36.854;174.870;2023-09-07T04:43:50;102414.00;;;16.50
19644;BMP180;9970;-36.854;174.870;2023-09-07T04:46:23;102410.00;;;16.50
19644;BMP180;9970;-36.854;174.870;2023-09-07T04:48:56;102411.00;;;16.50
19644;BMP180;9970;-36.854;174.870;2023-09-07T04:51:29;102414.00;;;16.50
19644;BMP180;9970;-36.854;174.870;2023-09-07T04:54:03;102417.00;;;16.40
19644;BMP180;9970;-36.854;174.870;2023-09-07T04:56:37;102414.00;;;16.50
19644;BMP180;9970;-36.854;174.870;2023-09-07T04:59:10;102415.00;;;16.40
19644;BMP180;9970;-36.854;174.870;2023-09-07T05:01:44;102427.00;;;16.40
19644;BMP180;9970;-36.854;174.870;2023-09-07T05:04:17;102428.00;;;16.30
19644;BMP180;9970;-36.854;174.870;2023-09-07T05:06:50;102435.00;;;16.30
19644;BMP180;9970;-36.854;174.870;2023-09-07T05:09:23;102431.00;;;16.30
19644;BMP180;9970;-36.854;174.870;2023-09-07T05:11:57;102431.00;;;16.30
19644;BMP180;9970;-36.854;174.870;2023-09-07T05:14:33;102435.00;;;16.30
19644;BMP180;9970;-36.854;174.870;2023-09-07T05:17:06;102436.00;;;16.30
19644;BMP180;9970;-36.854;174.870;2023-09-07T05:19:40;102441.00;;;16.20
19644;BMP180;9970;-36.854;174.870;2023-09-07T05:22:13;102442.00;;;16.20
19644;BMP180;9970;-36.854;174.870;2023-09-07T05:24:46;102444.00;;;16.20
19644;BMP180;9970;-36.854;174.870;2023-09-07T05:27:19;102447.00;;;16.10
19644;BMP180;9970;-36.854;174.870;2023-09-07T05:29:52;102446.00;;;16.10
19644;BMP180;9970;-36.854;174.870;2023-09-07T05:32:25;102445.00;;;16.10
19644;BMP180;9970;-36.854;174.870;2023-09-07T05:34:58;102449.00;;;16.10
19644;BMP180;9970;-36.854;174.870;2023-09-07T05:37:31;102451.00;;;16.10
19644;BMP180;9970;-36.854;174.870;2023-09-07T05:40:04;102454.00;;;16.00
19644;BMP180;9970;-36.854;174.870;2023-09-07T05:42:42;102450.00;;;16.00
19644;BMP180;9970;-36.854;174.870;2023-09-07T05:45:16;102455.00;;;16.00
19644;BMP180;9970;-36.854;174.870;2023-09-07T05:47:49;102455.00;;;16.00
19644;BMP180;9970;-36.854;174.870;2023-09-07T05:50:22;102460.00;;;16.00
19644;BMP180;9970;-36.854;174.870;2023-09-07T05:52:55;102455.00;;;15.90
19644;BMP180;9970;-36.854;174.870;2023-09-07T05:55:28;102457.00;;;15.90
19644;BMP180;9970;-36.854;174.870;2023-09-07T05:58:03;102456.00;;;15.90
19644;BMP180;9970;-36.854;174.870;2023-09-07T06:00:35;102466.00;;;15.90
19644;BMP180;9970;-36.854;174.870;2023-09-07T06:03:10;102471.00;;;15.80
19644;BMP180;9970;-36.854;174.870;2023-09-07T06:05:43;102480.00;;;15.80
19644;BMP180;9970;-36.854;174.870;2023-09-07T06:08:16;102484.00;;;15.80
19644;BMP180;9970;-36.854;174.870;2023-09-07T06:10:49;102488.00;;;15.80
19644;BMP180;9970;-36.854;174.870;2023-09-07T06:13:22;102490.00;;;15.80
19644;BMP180;9970;-36.854;174.870;2023-09-07T06:15:55;102492.00;;;15.70
19644;BMP180;9970;-36.854;174.870;2023-09-07T06:18:29;102504.00;;;15.70
19644;BMP180;9970;-36.854;174.870;2023-09-07T06:21:05;102498.00;;;15.70
19644;BMP180;9970;-36.854;174.870;2023-09-07T06:23:38;102499.00;;;15.70
19644;BMP180;9970;-36.854;174.870;2023-09-07T06:26:12;102500.00;;;15.70
19644;BMP180;9970;-36.854;174.870;2023-09-07T06:28:45;102512.00;;;15.70
19644;BMP180;9970;-36.854;174.870;2023-09-07T06:31:18;102515.00;;;15.60
19644;BMP180;9970;-36.854;174.870;2023-09-07T06:33:52;102524.00;;;15.60
19644;BMP180;9970;-36.854;174.870;2023-09-07T06:36:25;102523.00;;;15.60
19644;BMP180;9970;-36.854;174.870;2023-09-07T06:38:59;102523.00;;;15.60
19644;BMP180;9970;-36.854;174.870;2023-09-07T06:41:32;102538.00;;;15.60
19644;BMP180;9970;-36.854;174.870;2023-09-07T06:44:05;102539.00;;;15.50
19644;BMP180;9970;-36.854;174.870;2023-09-07T06:46:39;102534.00;;;15.50
19644;BMP180;9970;-36.854;174.870;2023-09-07T06:49:12;102544.00;;;15.50
19644;BMP180;9970;-36.854;174.870;2023-09-07T06:51:45;102545.00;;;15.50
19644;BMP180;9970;-36.854;174.870;2023-09-07T06:54:18;102548.00;;;15.50
19644;BMP180;9970;-36.854;174.870;2023-09-07T06:56:51;102550.00;;;15.40
19644;BMP180;9970;-36.854;174.870;2023-09-07T06:59:24;102547.00;;;15.40
19644;BMP180;9970;-36.854;174.870;2023-09-07T07:01:57;102551.00;;;15.40
19644;BMP180;9970;-36.854;174.870;2023-09-07T07:04:31;102552.00;;;15.40
19644;BMP180;9970;-36.854;174.870;2023-09-07T07:07:05;102553.00;;;15.40
19644;BMP180;9970;-36.854;174.870;2023-09-07T07:09:38;102557.00;;;15.40
19644;BMP180;9970;-36.854;174.870;2023-09-07T07:12:11;102562.00;;;15.30
19644;BMP180;9970;-36.854;174.870;2023-09-07T07:14:49;102570.00;;;15.30
19644;BMP180;9970;-36.854;174.870;2023-09-07T07:17:19;102565.00;;;15.20
19644;BMP180;9970;-36.854;174.870;2023-09-07T07:19:52;102566.00;;;15.20
19644;BMP180;9970;-36.854;174.870;2023-09-07T07:22:26;102571.00;;;15.20
19644;BMP180;9970;-36.854;174.870;2023-09-07T07:24:59;102570.00;;;15.20
19644;BMP180;9970;-36.854;174.870;2023-09-07T07:27:33;102572.00;;;15.10
19644;BMP180;9970;-36.854;174.870;2023-09-07T07:30:07;102583.00;;;15.10
19644;BMP180;9970;-36.854;174.870;2023-09-07T07:32:40;102573.00;;;15.10
19644;BMP180;9970;-36.854;174.870;2023-09-07T07:35:13;102585.00;;;15.10
19644;BMP180;9970;-36.854;174.870;2023-09-07T07:37:47;102586.00;;;15.10
19644;BMP180;9970;-36.854;174.870;2023-09-07T07:40:20;102594.00;;;15.10
19644;BMP180;9970;-36.854;174.870;2023-09-07T07:42:53;102584.00;;;15.20
19644;BMP180;9970;-36.854;174.870;2023-09-07T07:45:27;102590.00;;;15.10
19644;BMP180;9970;-36.854;174.870;2023-09-07T07:48:00;102598.00;;;15.10
19644;BMP180;9970;-36.854;174.870;2023-09-07T07:50:36;102593.00;;;15.10
19644;BMP180;9970;-36.854;174.870;2023-09-07T07:53:07;102611.00;;;15.10
19644;BMP180;9970;-36.854;174.870;2023-09-07T07:55:40;102609.00;;;15.10
19644;BMP180;9970;-36.854;174.870;2023-09-07T07:58:14;102613.00;;;15.00
19644;BMP180;9970;-36.854;174.870;2023-09-07T08:00:47;102609.00;;;15.00
19644;BMP180;9970;-36.854;174.870;2023-09-07T08:03:22;102627.00;;;15.00
19644;BMP180;9970;-36.854;174.870;2023-09-07T08:05:58;102625.00;;;15.00
19644;BMP180;9970;-36.854;174.870;2023-09-07T08:08:30;102624.00;;;15.00
19644;BMP180;9970;-36.854;174.870;2023-09-07T08:11:04;102641.00;;;14.90
19644;BMP180;9970;-36.854;174.870;2023-09-07T08:13:38;102632.00;;;14.90
19644;BMP180;9970;-36.854;174.870;2023-09-07T08:16:12;102630.00;;;14.90
19644;BMP180;9970;-36.854;174.870;2023-09-07T08:18:45;102630.00;;;14.90
19644;BMP180;9970;-36.854;174.870;2023-09-07T08:21:19;102638.00;;;14.90
19644;BMP180;9970;-36.854;174.870;2023-09-07T08:23:52;102626.00;;;14.90
19644;BMP180;9970;-36.854;174.870;2023-09-07T08:26:25;102630.00;;;14.90
19644;BMP180;9970;-36.854;174.870;2023-09-07T08:28:59;102642.00;;;14.90
19644;BMP180;9970;-36.854;174.870;2023-09-07T08:31:34;102629.00;;;14.90
19644;BMP180;9970;-36.854;174.870;2023-09-07T08:34:08;102625.00;;;14.90
19644;BMP180;9970;-36.854;174.870;2023-09-07T08:36:42;102639.00;;;14.90
19644;BMP180;9970;-36.854;174.870;2023-09-07T08:39:15;102643.00;;;14.90
19644;BMP180;9970;-36.854;174.870;2023-09-07T08:41:48;102643.00;;;14.90
19644;BMP180;9970;-36.854;174.870;2023-09-07T08:44:24;102648.00;;;14.90
19644;BMP180;9970;-36.854;174.870;2023-09-07T08:47:03;102646.00;;;14.80
19644;BMP180;9970;-36.854;174.870;2023-09-07T08:49:33;102662.00;;;14.80
19644;BMP180;9970;-36.854;174.870;2023-09-07T08:52:10;102653.00;;;14.80
19644;BMP180;9970;-36.854;174.870;2023-09-07T08:54:44;102657.00;;;14.80
19644;BMP180;9970;-36.854;174.870;2023-09-07T08:57:18;102655.00;;;14.80
19644;BMP180;9970;-36.854;174.870;2023-09-07T08:59:51;102670.00;;;14.80
19644;BMP180;9970;-36.854;174.870;2023-09-07T09:02:25;102672.00;;;14.80
19644;BMP180;9970;-36.854;174.870;2023-09-07T09:04:58;102684.00;;;14.80
19644;BMP180;9970;-36.854;174.870;2023-09-07T09:07:32;102678.00;;;14.80
19644;BMP180;9970;-36.854;174.870;2023-09-07T09:10:06;102680.00;;;14.80
19644;BMP180;9970;-36.854;174.870;2023-09-07T09:12:46;102676.00;;;14.80
19644;BMP180;9970;-36.854;174.870;2023-09-07T09:15:19;102687.00;;;14.80
19644;BMP180;9970;-36.854;174.870;2023-09-07T09:17:53;102682.00;;;14.70
19644;BMP180;9970;-36.854;174.870;2023-09-07T09:20:27;102677.00;;;14.70
19644;BMP180;9970;-36.854;174.870;2023-09-07T09:23:03;102678.00;;;14.70
19644;BMP180;9970;-36.854;174.870;2023-09-07T09:25:34;102676.00;;;14.70
19644;BMP180;9970;-36.854;174.870;2023-09-07T09:28:09;102677.00;;;14.70
19644;BMP180;9970;-36.854;174.870;2023-09-07T09:30:42;102680.00;;;14.70
19644;BMP180;9970;-36.854;174.870;2023-09-07T09:33:16;102682.00;;;14.70
19644;BMP180;9970;-36.854;174.870;2023-09-07T09:35:50;102686.00;;;14.60
19644;BMP180;9970;-36.854;174.870;2023-09-07T09:38:24;102680.00;;;14.60
19644;BMP180;9970;-36.854;174.870;2023-09-07T09:40:57;102689.00;;;14.60
19644;BMP180;9970;-36.854;174.870;2023-09-07T09:43:31;102681.00;;;14.60
19644;BMP180;9970;-36.854;174.870;2023-09-07T09:46:08;102687.00;;;14.60
19644;BMP180;9970;-36.854;174.870;2023-09-07T09:48:43;102686.00;;;14.50
19644;BMP180;9970;-36.854;174.870;2023-09-07T09:51:16;102687.00;;;14.50
19644;BMP180;9970;-36.854;174.870;2023-09-07T09:53:51;102684.00;;;14.40
19644;BMP180;9970;-36.854;174.870;2023-09-07T09:56:25;102687.00;;;14.40
19644;BMP180;9970;-36.854;174.870;2023-09-07T09:58:58;102687.00;;;14.40
19644;BMP180;9970;-36.854;174.870;2023-09-07T10:01:37;102689.00;;;14.40
19644;BMP180;9970;-36.854;174.870;2023-09-07T10:04:07;102684.00;;;14.40
19644;BMP180;9970;-36.854;174.870;2023-09-07T10:07:00;102687.00;;;14.40
19644;BMP180;9970;-36.854;174.870;2023-09-07T10:09:35;102691.00;;;14.40
19644;BMP180;9970;-36.854;174.870;2023-09-07T10:12:13;102703.00;;;14.30
19644;BMP180;9970;-36.854;174.870;2023-09-07T10:14:48;102696.00;;;14.30
19644;BMP180;9970;-36.854;174.870;2023-09-07T10:17:23;102701.00;;;14.30
19644;BMP180;9970;-36.854;174.870;2023-09-07T10:20:06;102697.00;;;14.30
19644;BMP180;9970;-36.854;174.870;2023-09-07T10:22:39;102701.00;;;14.20
19644;BMP180;9970;-36.854;174.870;2023-09-07T10:25:20;102699.00;;;14.20
19644;BMP180;9970;-36.854;174.870;2023-09-07T10:27:53;102703.00;;;14.20
19644;BMP180;9970;-36.854;174.870;2023-09-07T10:30:27;102702.00;;;14.10
19644;BMP180;9970;-36.854;174.870;2023-09-07T10:33:01;102702.00;;;14.10
19644;BMP180;9970;-36.854;174.870;2023-09-07T10:35:35;102707.00;;;14.00
19644;BMP180;9970;-36.854;174.870;2023-09-07T10:38:12;102718.00;;;14.00
19644;BMP180;9970;-36.854;174.870;2023-09-07T10:40:44;102704.00;;;14.00
19644;BMP180;9970;-36.854;174.870;2023-09-07T10:43:17;102705.00;;;14.00
19644;BMP180;9970;-36.854;174.870;2023-09-07T10:46:00;102713.00;;;13.90
19644;BMP180;9970;-36.854;174.870;2023-09-07T10:48:35;102704.00;;;13.90
19644;BMP180;9970;-36.854;174.870;2023-09-07T10:51:08;102705.00;;;13.90
19644;BMP180;9970;-36.854;174.870;2023-09-07T10:53:41;102703.00;;;13.90
19644;BMP180;9970;-36.854;174.870;2023-09-07T10:56:15;102696.00;;;13.90
19644;BMP180;9970;-36.854;174.870;2023-09-07T10:58:48;102704.00;;;13.90
19644;BMP180;9970;-36.854;174.870;2023-09-07T11:01:22;102712.00;;;13.90
19644;BMP180;9970;-36.854;174.870;2023-09-07T11:03:55;102712.00;;;13.90
19644;BMP180;9970;-36.854;174.870;2023-09-07T11:06:28;102700.00;;;13.80
19644;BMP180;9970;-36.854;174.870;2023-09-07T11:09:02;102695.00;;;13.80
19644;BMP180;9970;-36.854;174.870;2023-09-07T11:11:36;102693.00;;;13.80
19644;BMP180;9970;-36.854;174.870;2023-09-07T11:14:09;102686.00;;;13.80
19644;BMP180;9970;-36.854;174.870;2023-09-07T11:16:42;102693.00;;;13.80
19644;BMP180;9970;-36.854;174.870;2023-09-07T11:19:15;102693.00;;;13.90
19644;BMP180;9970;-36.854;174.870;2023-09-07T11:21:52;102677.00;;;13.90
19644;BMP180;9970;-36.854;174.870;2023-09-07T11:24:24;102687.00;;;13.90
19644;BMP180;9970;-36.854;174.870;2023-09-07T11:27:01;102684.00;;;13.90
19644;BMP180;9970;-36.854;174.870;2023-09-07T11:29:34;102682.00;;;13.90
19644;BMP180;9970;-36.854;174.870;2023-09-07T11:32:11;102690.00;;;13.90
19644;BMP180;9970;-36.854;174.870;2023-09-07T11:34:51;102678.00;;;13.90
19644;BMP180;9970;-36.854;174.870;2023-09-07T11:37:26;102689.00;;;13.90
19644;BMP180;9970;-36.854;174.870;2023-09-07T11:40:03;102694.00;;;13.90
19644;BMP180;9970;-36.854;174.870;2023-09-07T11:42:38;102692.00;;;13.90
19644;BMP180;9970;-36.854;174.870;2023-09-07T11:45:11;102702.00;;;13.90
19644;BMP180;9970;-36.854;174.870;2023-09-07T11:47:44;102702.00;;;13.90
19644;BMP180;9970;-36.854;174.870;2023-09-07T11:50:18;102703.00;;;13.90
19644;BMP180;9970;-36.854;174.870;2023-09-07T11:52:52;102700.00;;;13.90
19644;BMP180;9970;-36.854;174.870;2023-09-07T11:55:24;102704.00;;;13.90
19644;BMP180;9970;-36.854;174.870;2023-09-07T11:57:57;102712.00;;;13.90
19644;BMP180;9970;-36.854;174.870;2023-09-07T12:00:31;102704.00;;;13.80
19644;BMP180;9970;-36.854;174.870;2023-09-07T12:03:08;102707.00;;;13.80
19644;BMP180;9970;-36.854;174.870;2023-09-07T12:05:45;102710.00;;;13.70
19644;BMP180;9970;-36.854;174.870;2023-09-07T12:08:18;102721.00;;;13.70
19644;BMP180;9970;-36.854;174.870;2023-09-07T12:10:52;102712.00;;;13.70
19644;BMP180;9970;-36.854;174.870;2023-09-07T12:13:25;102714.00;;;13.70
19644;BMP180;9970;-36.854;174.870;2023-09-07T12:15:58;102714.00;;;13.70
19644;BMP180;9970;-36.854;174.870;2023-09-07T12:18:33;102716.00;;;13.60
19644;BMP180;9970;-36.854;174.870;2023-09-07T12:21:06;102727.00;;;13.60
19644;BMP180;9970;-36.854;174.870;2023-09-07T12:23:39;102723.00;;;13.60
19644;BMP180;9970;-36.854;174.870;2023-09-07T12:26:13;102730.00;;;13.60
19644;BMP180;9970;-36.854;174.870;2023-09-07T12:28:50;102726.00;;;13.50
19644;BMP180;9970;-36.854;174.870;2023-09-07T12:31:23;102727.00;;;13.50
19644;BMP180;9970;-36.854;174.870;2023-09-07T12:33:56;102727.00;;;13.50
19644;BMP180;9970;-36.854;174.870;2023-09-07T12:36:30;102729.00;;;13.50
19644;BMP180;9970;-36.854;174.870;2023-09-07T12:39:06;102731.00;;;13.50
19644;BMP180;9970;-36.854;174.870;2023-09-07T12:41:40;102738.00;;;13.50
19644;BMP180;9970;-36.854;174.870;2023-09-07T12:44:13;102728.00;;;13.50
19644;BMP180;9970;-36.854;174.870;2023-09-07T12:46:46;102724.00;;;13.50
19644;BMP180;9970;-36.854;174.870;2023-09-07T12:49:20;102732.00;;;13.50
19644;BMP180;9970;-36.854;174.870;2023-09-07T12:51:54;102731.00;;;13.50
19644;BMP180;9970;-36.854;174.870;2023-09-07T12:54:28;102732.00;;;13.40
19644;BMP180;9970;-36.854;174.870;2023-09-07T12:57:01;102732.00;;;13.40
19644;BMP180;9970;-36.854;174.870;2023-09-07T12:59:34;102740.00;;;13.40
19644;BMP180;9970;-36.854;174.870;2023-09-07T13:02:07;102736.00;;;13.40
19644;BMP180;9970;-36.854;174.870;2023-09-07T13:04:41;102738.00;;;13.40
19644;BMP180;9970;-36.854;174.870;2023-09-07T13:07:14;102738.00;;;13.30
19644;BMP180;9970;-36.854;174.870;2023-09-07T13:09:47;102740.00;;;13.30
19644;BMP180;9970;-36.854;174.870;2023-09-07T13:12:21;102729.00;;;13.30
19644;BMP180;9970;-36.854;174.870;2023-09-07T13:14:55;102739.00;;;13.20
19644;BMP180;9970;-36.854;174.870;2023-09-07T13:17:28;102736.00;;;13.20
19644;BMP180;9970;-36.854;174.870;2023-09-07T13:20:01;102736.00;;;13.20
19644;BMP180;9970;-36.854;174.870;2023-09-07T13:22:37;102738.00;;;13.20
19644;BMP180;9970;-36.854;174.870;2023-09-07T13:25:12;102738.00;;;13.20
19644;BMP180;9970;-36.854;174.870;2023-09-07T13:27:45;102739.00;;;13.20
19644;BMP180;9970;-36.854;174.870;2023-09-07T13:30:18;102728.00;;;13.20
19644;BMP180;9970;-36.854;174.870;2023-09-07T13:32:52;102728.00;;;13.20
19644;BMP180;9970;-36.854;174.870;2023-09-07T13:35:26;102739.00;;;13.20
19644;BMP180;9970;-36.854;174.870;2023-09-07T13:38:03;102742.00;;;13.10
19644;BMP180;9970;-36.854;174.870;2023-09-07T13:40:40;102737.00;;;13.20
19644;BMP180;9970;-36.854;174.870;2023-09-07T13:43:14;102740.00;;;13.20
19644;BMP180;9970;-36.854;174.870;2023-09-07T13:45:47;102730.00;;;13.10
19644;BMP180;9970;-36.854;174.870;2023-09-07T13:48:20;102737.00;;;13.10
19644;BMP180;9970;-36.854;174.870;2023-09-07T13:50:53;102730.00;;;13.00
19644;BMP180;9970;-36.854;174.870;2023-09-07T13:53:26;102728.00;;;13.00
19644;BMP180;9970;-36.854;174.870;2023-09-07T13:56:00;102733.00;;;12.90
19644;BMP180;9970;-36.854;174.870;2023-09-07T13:58:33;102731.00;;;13.00
19644;BMP180;9970;-36.854;174.870;2023-09-07T14:01:06;102732.00;;;12.90
19644;BMP180;9970;-36.854;174.870;2023-09-07T14:03:39;102737.00;;;12.90
19644;BMP180;9970;-36.854;174.870;2023-09-07T14:06:15;102740.00;;;12.90
19644;BMP180;9970;-36.854;174.870;2023-09-07T14:08:49;102739.00;;;12.80
19644;BMP180;9970;-36.854;174.870;2023-09-07T14:11:22;102739.00;;;12.80
19644;BMP180;9970;-36.854;174.870;2023-09-07T14:13:55;102729.00;;;12.80